sensor_id;sensor_type;location;lat;lon;timestamp;P1;durP1;ratioP1;P2;durP2;ratioP2
1164;SDS011;571;50.930;6.926;2023-04-01T02:46:09;0.50;;;0.33;;
1164;SDS011;571;50.930;6.926;2023-04-01T02:48:36;1.37;;;0.50;;
1164;SDS011;571;50.930;6.926;2023-04-01T02:51:03;6.13;;;1.43;;
1164;SDS011;571;50.930;6.926;2023-04-01T02:53:30;0.80;;;0.50;;
1164;SDS011;571;50.930;6.926;2023-04-01T02:55:56;1.43;;;0.80;;
1164;SDS011;571;50.930;6.926;2023-04-01T02:58:23;1.63;;;0.50;;
1164;SDS011;571;50.930;6.926;2023-04-01T03:00:52;1.73;;;0.53;;
1164;SDS011;571;50.930;6.926;2023-04-01T03:03:32;0.80;;;0.50;;
1164;SDS011;571;50.930;6.926;2023-04-01T03:06:39;1.80;;;0.60;;
1164;SDS011;571;50.930;6.926;2023-04-01T03:12:54;0.77;;;0.43;;
1164;SDS011;571;50.930;6.926;2023-04-01T03:19:31;1.40;;;0.47;;
1164;SDS011;571;50.930;6.926;2023-04-01T03:22:24;2.27;;;0.40;;
1164;SDS011;571;50.930;6.926;2023-04-01T03:28:35;0.50;;;0.30;;
1164;SDS011;571;50.930;6.926;2023-04-01T03:31:39;0.47;;;0.27;;
1164;SDS011;571;50.930;6.926;2023-04-01T03:34:50;0.97;;;0.57;;
1164;SDS011;571;50.930;6.926;2023-04-01T03:38:09;0.50;;;0.30;;
1164;SDS011;571;50.930;6.926;2023-04-01T03:40:49;0.70;;;0.37;;
1164;SDS011;571;50.930;6.926;2023-04-01T03:43:19;0.77;;;0.30;;
1164;SDS011;571;50.930;6.926;2023-04-01T03:46:07;2.40;;;0.33;;
1164;SDS011;571;50.930;6.926;2023-04-01T03:48:48;0.53;;;0.30;;
1164;SDS011;571;50.930;6.926;2023-04-01T03:54:36;0.60;;;0.20;;
1164;SDS011;571;50.930;6.926;2023-04-01T03:57:40;0.63;;;0.30;;
1164;SDS011;571;50.930;6.926;2023-04-01T04:00:24;0.70;;;0.40;;
1164;SDS011;571;50.930;6.926;2023-04-01T04:03:36;0.50;;;0.30;;
1164;SDS011;571;50.930;6.926;2023-04-01T04:06:29;0.73;;;0.30;;
1164;SDS011;571;50.930;6.926;2023-04-01T04:12:30;0.60;;;0.37;;
1164;SDS011;571;50.930;6.926;2023-04-01T04:18:12;0.50;;;0.30;;
1164;SDS011;571;50.930;6.926;2023-04-01T04:21:14;0.50;;;0.30;;
1164;SDS011;571;50.930;6.926;2023-04-01T04:24:02;0.50;;;0.30;;
1164;SDS011;571;50.930;6.926;2023-04-01T04:30:30;0.40;;;0.30;;
1164;SDS011;571;50.930;6.926;2023-04-01T04:33:23;0.50;;;0.30;;
1164;SDS011;571;50.930;6.926;2023-04-01T04:36:24;0.47;;;0.30;;
1164;SDS011;571;50.930;6.926;2023-04-01T04:39:20;0.70;;;0.37;;
1164;SDS011;571;50.930;6.926;2023-04-01T04:42:15;0.60;;;0.30;;
1164;SDS011;571;50.930;6.926;2023-04-01T04:45:24;0.77;;;0.40;;
1164;SDS011;571;50.930;6.926;2023-04-01T04:48:22;1.83;;;0.40;;
1164;SDS011;571;50.930;6.926;2023-04-01T04:51:20;0.70;;;0.53;;
1164;SDS011;571;50.930;6.926;2023-04-01T04:54:05;0.63;;;0.30;;
1164;SDS011;571;50.930;6.926;2023-04-01T04:57:04;1.13;;;0.30;;
1164;SDS011;571;50.930;6.926;2023-04-01T04:59:44;0.50;;;0.30;;
1164;SDS011;571;50.930;6.926;2023-04-01T05:03:13;0.53;;;0.23;;
1164;SDS011;571;50.930;6.926;2023-04-01T05:06:10;1.40;;;0.40;;
1164;SDS011;571;50.930;6.926;2023-04-01T05:09:08;0.40;;;0.30;;
1164;SDS011;571;50.930;6.926;2023-04-01T05:15:14;0.40;;;0.30;;
1164;SDS011;571;50.930;6.926;2023-04-01T05:21:34;0.50;;;0.40;;
1164;SDS011;571;50.930;6.926;2023-04-01T05:24:15;0.90;;;0.40;;
1164;SDS011;571;50.930;6.926;2023-04-01T05:26:59;0.50;;;0.40;;
1164;SDS011;571;50.930;6.926;2023-04-01T05:30:22;0.47;;;0.30;;
1164;SDS011;571;50.930;6.926;2023-04-01T05:33:20;1.17;;;0.40;;
1164;SDS011;571;50.930;6.926;2023-04-01T05:36:24;1.00;;;0.40;;
1164;SDS011;571;50.930;6.926;2023-04-01T05:39:24;0.50;;;0.30;;
1164;SDS011;571;50.930;6.926;2023-04-01T05:42:25;1.10;;;0.37;;
1164;SDS011;571;50.930;6.926;2023-04-01T06:54:00;1.27;;;0.90;;
1164;SDS011;571;50.930;6.926;2023-04-01T07:23:44;1.60;;;1.10;;
1164;SDS011;571;50.930;6.926;2023-04-01T07:26:48;3.10;;;1.70;;
1164;SDS011;571;50.930;6.926;2023-04-01T07:33:19;2.63;;;1.53;;
1164;SDS011;571;50.930;6.926;2023-04-01T07:39:37;2.17;;;1.80;;
1164;SDS011;571;50.930;6.926;2023-04-01T10:50:47;0.90;;;0.80;;
1164;SDS011;571;50.930;6.926;2023-04-01T10:53:42;1.27;;;1.13;;
1164;SDS011;571;50.930;6.926;2023-04-01T10:59:28;1.10;;;1.00;;
1164;SDS011;571;50.930;6.926;2023-04-01T11:17:49;1.20;;;1.10;;
1164;SDS011;571;50.930;6.926;2023-04-01T11:23:50;1.10;;;1.00;;
1164;SDS011;571;50.930;6.926;2023-04-01T11:26:29;0.83;;;0.83;;
1164;SDS011;571;50.930;6.926;2023-04-01T11:29:13;1.10;;;0.83;;
1164;SDS011;571;50.930;6.926;2023-04-01T11:31:52;1.10;;;1.00;;
1164;SDS011;571;50.930;6.926;2023-04-01T11:34:32;0.93;;;0.83;;
1164;SDS011;571;50.930;6.926;2023-04-01T11:37:14;0.73;;;0.73;;
1164;SDS011;571;50.930;6.926;2023-04-01T11:39:56;1.17;;;1.00;;
1164;SDS011;571;50.930;6.926;2023-04-01T11:42:34;1.80;;;0.80;;
1164;SDS011;571;50.930;6.926;2023-04-01T11:45:20;0.73;;;0.73;;
1164;SDS011;571;50.930;6.926;2023-04-01T11:48:03;1.00;;;0.90;;
1164;SDS011;571;50.930;6.926;2023-04-01T11:50:53;5.43;;;2.23;;
1164;SDS011;571;50.930;6.926;2023-04-01T11:53:38;1.13;;;1.03;;
1164;SDS011;571;50.930;6.926;2023-04-01T11:56:16;1.57;;;0.80;;
1164;SDS011;571;50.930;6.926;2023-04-01T11:59:12;1.00;;;0.90;;
1164;SDS011;571;50.930;6.926;2023-04-01T12:02:12;2.93;;;1.13;;
1164;SDS011;571;50.930;6.926;2023-04-01T12:05:03;1.23;;;1.10;;
1164;SDS011;571;50.930;6.926;2023-04-01T12:07:50;2.53;;;1.70;;
1164;SDS011;571;50.930;6.926;2023-04-01T12:10:28;2.83;;;1.40;;
1164;SDS011;571;50.930;6.926;2023-04-01T12:13:04;1.27;;;1.17;;
1164;SDS011;571;50.930;6.926;2023-04-01T12:15:44;0.83;;;0.83;;
1164;SDS011;571;50.930;6.926;2023-04-01T12:18:25;1.10;;;1.00;;
1164;SDS011;571;50.930;6.926;2023-04-01T12:21:00;0.90;;;0.87;;
1164;SDS011;571;50.930;6.926;2023-04-01T12:23:42;1.10;;;0.83;;
1164;SDS011;571;50.930;6.926;2023-04-01T12:29:28;0.80;;;0.80;;
1164;SDS011;571;50.930;6.926;2023-04-01T12:32:17;0.70;;;0.70;;
1164;SDS011;571;50.930;6.926;2023-04-01T12:34:56;0.90;;;0.70;;
1164;SDS011;571;50.930;6.926;2023-04-01T12:37:39;2.43;;;0.97;;
1164;SDS011;571;50.930;6.926;2023-04-01T12:40:17;1.20;;;1.10;;
1164;SDS011;571;50.930;6.926;2023-04-01T12:42:57;0.80;;;0.80;;
1164;SDS011;571;50.930;6.926;2023-04-01T12:45:32;0.67;;;0.67;;
1164;SDS011;571;50.930;6.926;2023-04-01T12:48:12;1.57;;;0.73;;
1164;SDS011;571;50.930;6.926;2023-04-01T12:51:00;0.87;;;0.87;;
1164;SDS011;571;50.930;6.926;2023-04-01T12:53:46;1.03;;;0.93;;
1164;SDS011;571;50.930;6.926;2023-04-01T12:56:28;1.60;;;1.50;;
1164;SDS011;571;50.930;6.926;2023-04-01T13:02:05;1.20;;;1.00;;
1164;SDS011;571;50.930;6.926;2023-04-01T13:04:57;0.80;;;0.80;;
1164;SDS011;571;50.930;6.926;2023-04-01T13:07:51;1.10;;;1.00;;
1164;SDS011;571;50.930;6.926;2023-04-01T13:10:27;1.30;;;1.20;;
1164;SDS011;571;50.930;6.926;2023-04-01T13:13:18;1.03;;;0.80;;
1164;SDS011;571;50.930;6.926;2023-04-01T13:15:55;1.27;;;0.90;;
1164;SDS011;571;50.930;6.926;2023-04-01T13:18:27;1.20;;;0.80;;
1164;SDS011;571;50.930;6.926;2023-04-01T13:21:04;1.30;;;1.10;;
1164;SDS011;571;50.930;6.926;2023-04-01T13:23:45;1.70;;;1.00;;
1164;SDS011;571;50.930;6.926;2023-04-01T13:26:21;1.53;;;1.43;;
1164;SDS011;571;50.930;6.926;2023-04-01T13:28:55;1.30;;;1.20;;
1164;SDS011;571;50.930;6.926;2023-04-01T13:31:32;1.57;;;1.47;;
1164;SDS011;571;50.930;6.926;2023-04-01T13:34:08;1.30;;;1.20;;
1164;SDS011;571;50.930;6.926;2023-04-01T13:36:48;1.00;;;0.90;;
1164;SDS011;571;50.930;6.926;2023-04-01T13:39:27;1.00;;;0.90;;
1164;SDS011;571;50.930;6.926;2023-04-01T13:42:15;1.57;;;1.47;;
1164;SDS011;571;50.930;6.926;2023-04-01T13:44:48;1.67;;;1.57;;
1164;SDS011;571;50.930;6.926;2023-04-01T13:50:32;1.90;;;1.80;;
1164;SDS011;571;50.930;6.926;2023-04-01T13:53:20;1.53;;;1.43;;
1164;SDS011;571;50.930;6.926;2023-04-01T13:56:17;1.80;;;1.70;;
1164;SDS011;571;50.930;6.926;2023-04-01T13:59:03;1.80;;;1.70;;
1164;SDS011;571;50.930;6.926;2023-04-01T14:01:49;1.60;;;1.50;;
1164;SDS011;571;50.930;6.926;2023-04-01T14:07:24;2.10;;;1.90;;
1164;SDS011;571;50.930;6.926;2023-04-01T14:10:06;2.80;;;1.90;;
1164;SDS011;571;50.930;6.926;2023-04-01T14:12:41;2.23;;;1.13;;
1164;SDS011;571;50.930;6.926;2023-04-01T14:15:28;2.20;;;2.00;;
1164;SDS011;571;50.930;6.926;2023-04-01T14:18:21;2.13;;;1.93;;
1164;SDS011;571;50.930;6.926;2023-04-01T14:21:13;1.60;;;1.50;;
1164;SDS011;571;50.930;6.926;2023-04-01T14:23:54;1.83;;;1.73;;
1164;SDS011;571;50.930;6.926;2023-04-01T14:26:56;1.47;;;1.37;;
1164;SDS011;571;50.930;6.926;2023-04-01T14:29:54;2.20;;;1.90;;
1164;SDS011;571;50.930;6.926;2023-04-01T14:32:32;2.87;;;2.20;;
1164;SDS011;571;50.930;6.926;2023-04-01T14:35:12;2.20;;;2.00;;
1164;SDS011;571;50.930;6.926;2023-04-01T14:38:02;1.60;;;1.50;;
1164;SDS011;571;50.930;6.926;2023-04-01T14:40:43;2.20;;;1.97;;
1164;SDS011;571;50.930;6.926;2023-04-01T14:46:40;1.77;;;1.67;;
1164;SDS011;571;50.930;6.926;2023-04-01T14:49:20;2.07;;;1.80;;
1164;SDS011;571;50.930;6.926;2023-04-01T14:51:52;1.50;;;1.40;;
1164;SDS011;571;50.930;6.926;2023-04-01T14:54:21;2.77;;;1.83;;
1164;SDS011;571;50.930;6.926;2023-04-01T14:57:01;2.50;;;2.03;;
1164;SDS011;571;50.930;6.926;2023-04-01T14:59:39;2.47;;;1.80;;
1164;SDS011;571;50.930;6.926;2023-04-01T15:02:14;1.60;;;1.50;;
1164;SDS011;571;50.930;6.926;2023-04-01T15:04:54;2.20;;;1.30;;
1164;SDS011;571;50.930;6.926;2023-04-01T15:07:45;2.90;;;2.40;;
1164;SDS011;571;50.930;6.926;2023-04-01T15:10:41;1.80;;;1.70;;
1164;SDS011;571;50.930;6.926;2023-04-01T15:13:35;2.20;;;2.00;;
1164;SDS011;571;50.930;6.926;2023-04-01T15:16:13;2.47;;;2.27;;
1164;SDS011;571;50.930;6.926;2023-04-01T15:18:51;2.23;;;1.40;;
1164;SDS011;571;50.930;6.926;2023-04-01T15:21:30;1.67;;;1.57;;
1164;SDS011;571;50.930;6.926;2023-04-01T15:24:06;2.17;;;1.97;;
1164;SDS011;571;50.930;6.926;2023-04-01T15:26:42;2.07;;;1.63;;
1164;SDS011;571;50.930;6.926;2023-04-01T15:32:40;3.30;;;2.97;;
1164;SDS011;571;50.930;6.926;2023-04-01T15:35:24;2.20;;;1.90;;
1164;SDS011;571;50.930;6.926;2023-04-01T15:37:58;2.20;;;2.00;;
1164;SDS011;571;50.930;6.926;2023-04-01T15:40:34;2.60;;;2.40;;
1164;SDS011;571;50.930;6.926;2023-04-01T15:43:14;2.17;;;2.07;;
1164;SDS011;571;50.930;6.926;2023-04-01T15:45:51;2.23;;;2.03;;
1164;SDS011;571;50.930;6.926;2023-04-01T15:48:40;2.40;;;2.20;;
1164;SDS011;571;50.930;6.926;2023-04-01T15:51:32;2.10;;;1.90;;
1164;SDS011;571;50.930;6.926;2023-04-01T15:57:20;3.13;;;2.90;;
1164;SDS011;571;50.930;6.926;2023-04-01T16:00:01;2.60;;;2.40;;
1164;SDS011;571;50.930;6.926;2023-04-01T16:02:39;2.90;;;2.70;;
1164;SDS011;571;50.930;6.926;2023-04-01T16:05:20;2.53;;;2.33;;
1164;SDS011;571;50.930;6.926;2023-04-01T16:08:11;2.37;;;2.17;;
1164;SDS011;571;50.930;6.926;2023-04-01T16:11:07;2.47;;;2.27;;
1164;SDS011;571;50.930;6.926;2023-04-01T16:13:46;2.53;;;2.33;;
1164;SDS011;571;50.930;6.926;2023-04-01T16:16:26;2.58;;;2.20;;
1164;SDS011;571;50.930;6.926;2023-04-01T16:19:12;2.97;;;2.20;;
1164;SDS011;571;50.930;6.926;2023-04-01T16:21:59;3.33;;;3.03;;
1164;SDS011;571;50.930;6.926;2023-04-01T16:24:34;2.50;;;2.30;;
1164;SDS011;571;50.930;6.926;2023-04-01T16:27:06;3.00;;;2.73;;
1164;SDS011;571;50.930;6.926;2023-04-01T16:29:40;2.00;;;1.83;;
1164;SDS011;571;50.930;6.926;2023-04-01T16:32:17;2.87;;;2.57;;
1164;SDS011;571;50.930;6.926;2023-04-01T16:34:54;2.70;;;2.50;;
1164;SDS011;571;50.930;6.926;2023-04-01T16:37:29;3.00;;;2.70;;
1164;SDS011;571;50.930;6.926;2023-04-01T16:40:11;2.60;;;2.40;;
1164;SDS011;571;50.930;6.926;2023-04-01T16:42:43;3.57;;;3.10;;
1164;SDS011;571;50.930;6.926;2023-04-01T16:45:16;3.60;;;3.30;;
1164;SDS011;571;50.930;6.926;2023-04-01T16:47:53;2.53;;;2.33;;
1164;SDS011;571;50.930;6.926;2023-04-01T16:50:24;2.70;;;2.50;;
1164;SDS011;571;50.930;6.926;2023-04-01T16:53:00;2.63;;;2.43;;
1164;SDS011;571;50.930;6.926;2023-04-01T16:55:46;2.57;;;2.37;;
1164;SDS011;571;50.930;6.926;2023-04-01T16:58:21;3.27;;;2.97;;
1164;SDS011;571;50.930;6.926;2023-04-01T17:00:53;2.63;;;2.43;;
1164;SDS011;571;50.930;6.926;2023-04-01T17:03:28;2.70;;;2.50;;
1164;SDS011;571;50.930;6.926;2023-04-01T17:06:03;1.97;;;1.80;;
1164;SDS011;571;50.930;6.926;2023-04-01T17:08:52;3.10;;;2.63;;
1164;SDS011;571;50.930;6.926;2023-04-01T17:11:34;2.43;;;2.20;;
1164;SDS011;571;50.930;6.926;2023-04-01T17:14:09;2.37;;;2.17;;
1164;SDS011;571;50.930;6.926;2023-04-01T17:16:56;2.30;;;2.10;;
1164;SDS011;571;50.930;6.926;2023-04-01T17:22:27;2.77;;;2.43;;
1164;SDS011;571;50.930;6.926;2023-04-01T17:25:26;4.60;;;2.60;;
1164;SDS011;571;50.930;6.926;2023-04-01T18:26:46;5.13;;;4.23;;
1164;SDS011;571;50.930;6.926;2023-04-01T18:29:18;4.20;;;3.90;;
1164;SDS011;571;50.930;6.926;2023-04-01T18:31:55;4.87;;;4.23;;
1164;SDS011;571;50.930;6.926;2023-04-01T18:34:40;4.10;;;3.80;;
1164;SDS011;571;50.930;6.926;2023-04-01T18:37:24;4.30;;;3.90;;
1164;SDS011;571;50.930;6.926;2023-04-01T18:39:56;3.90;;;3.60;;
1164;SDS011;571;50.930;6.926;2023-04-01T18:42:42;5.40;;;4.90;;
1164;SDS011;571;50.930;6.926;2023-04-01T18:45:20;5.00;;;4.50;;
1164;SDS011;571;50.930;6.926;2023-04-01T18:47:55;4.93;;;4.40;;
1164;SDS011;571;50.930;6.926;2023-04-01T18:50:30;3.57;;;3.27;;
1164;SDS011;571;50.930;6.926;2023-04-01T18:53:22;3.80;;;3.50;;
1164;SDS011;571;50.930;6.926;2023-04-01T18:56:05;4.90;;;4.13;;
1164;SDS011;571;50.930;6.926;2023-04-01T18:58:58;4.20;;;3.80;;
1164;SDS011;571;50.930;6.926;2023-04-01T19:01:34;4.97;;;3.33;;
1164;SDS011;571;50.930;6.926;2023-04-01T19:04:22;4.70;;;4.20;;
1164;SDS011;571;50.930;6.926;2023-04-01T19:10:35;4.10;;;3.13;;
1164;SDS011;571;50.930;6.926;2023-04-01T19:17:15;4.00;;;3.60;;
1164;SDS011;571;50.930;6.926;2023-04-01T19:26:44;3.57;;;3.27;;
1164;SDS011;571;50.930;6.926;2023-04-01T19:33:14;4.57;;;4.17;;
1164;SDS011;571;50.930;6.926;2023-04-01T19:36:31;3.93;;;3.63;;
1164;SDS011;571;50.930;6.926;2023-04-01T19:39:48;4.87;;;4.37;;
1164;SDS011;571;50.930;6.926;2023-04-01T19:42:50;4.30;;;3.90;;
1164;SDS011;571;50.930;6.926;2023-04-01T19:46:13;4.10;;;3.70;;
1164;SDS011;571;50.930;6.926;2023-04-01T19:52:14;4.90;;;4.50;;
1164;SDS011;571;50.930;6.926;2023-04-01T19:55:28;4.47;;;4.17;;
1164;SDS011;571;50.930;6.926;2023-04-01T19:59:04;4.57;;;4.17;;
1164;SDS011;571;50.930;6.926;2023-04-01T20:01:51;3.90;;;3.60;;
1164;SDS011;571;50.930;6.926;2023-04-01T20:05:16;5.37;;;4.13;;
1164;SDS011;571;50.930;6.926;2023-04-01T20:08:35;5.60;;;4.50;;
1164;SDS011;571;50.930;6.926;2023-04-01T20:11:34;6.43;;;5.37;;
1164;SDS011;571;50.930;6.926;2023-04-01T20:14:32;5.27;;;4.70;;
1164;SDS011;571;50.930;6.926;2023-04-01T20:17:40;5.03;;;4.43;;
1164;SDS011;571;50.930;6.926;2023-04-01T20:38:04;5.40;;;4.90;;
1164;SDS011;571;50.930;6.926;2023-04-01T20:44:42;6.77;;;4.13;;
1164;SDS011;571;50.930;6.926;2023-04-01T20:52:06;5.40;;;5.00;;
1164;SDS011;571;50.930;6.926;2023-04-01T21:26:30;3.43;;;3.13;;
1164;SDS011;571;50.930;6.926;2023-04-01T21:29:44;4.43;;;3.10;;
1164;SDS011;571;50.930;6.926;2023-04-01T21:33:14;3.33;;;2.77;;
1164;SDS011;571;50.930;6.926;2023-04-01T21:39:51;2.90;;;2.60;;
1164;SDS011;571;50.930;6.926;2023-04-01T21:59:40;4.20;;;3.90;;
1164;SDS011;571;50.930;6.926;2023-04-01T22:33:47;6.00;;;5.40;;
1164;SDS011;571;50.930;6.926;2023-04-01T22:36:54;6.47;;;5.33;;
1164;SDS011;571;50.930;6.926;2023-04-01T22:43:06;6.60;;;6.00;;
1164;SDS011;571;50.930;6.926;2023-04-01T22:45:42;6.27;;;5.57;;
1164;SDS011;571;50.930;6.926;2023-04-01T22:48:23;6.20;;;5.60;;
1164;SDS011;571;50.930;6.926;2023-04-01T22:51:22;5.63;;;5.13;;
1164;SDS011;571;50.930;6.926;2023-04-01T22:54:15;5.83;;;5.27;;
1164;SDS011;571;50.930;6.926;2023-04-01T22:57:08;5.60;;;5.10;;
1164;SDS011;571;50.930;6.926;2023-04-01T22:59:43;6.40;;;5.77;;
1164;SDS011;571;50.930;6.926;2023-04-01T23:02:23;6.60;;;5.53;;
1164;SDS011;571;50.930;6.926;2023-04-01T23:05:09;7.53;;;6.00;;
1164;SDS011;571;50.930;6.926;2023-04-01T23:10:39;6.10;;;5.60;;
1164;SDS011;571;50.930;6.926;2023-04-01T23:13:18;8.00;;;5.97;;
1164;SDS011;571;50.930;6.926;2023-04-01T23:16:00;6.73;;;6.00;;
1164;SDS011;571;50.930;6.926;2023-04-01T23:18:41;7.87;;;6.73;;
1164;SDS011;571;50.930;6.926;2023-04-01T23:21:22;6.57;;;5.97;;
1164;SDS011;571;50.930;6.926;2023-04-01T23:24:15;6.90;;;6.20;;
1164;SDS011;571;50.930;6.926;2023-04-01T23:26:49;7.73;;;6.90;;
1164;SDS011;571;50.930;6.926;2023-04-01T23:29:29;7.50;;;6.73;;
1164;SDS011;571;50.930;6.926;2023-04-01T23:32:03;8.83;;;7.93;;
1164;SDS011;571;50.930;6.926;2023-04-01T23:34:31;8.20;;;7.27;;
1164;SDS011;571;50.930;6.926;2023-04-01T23:37:04;10.50;;;9.00;;
1164;SDS011;571;50.930;6.926;2023-04-01T23:39:45;9.73;;;8.47;;
1164;SDS011;571;50.930;6.926;2023-04-01T23:42:26;10.17;;;9.17;;
1164;SDS011;571;50.930;6.926;2023-04-01T23:45:00;8.50;;;7.60;;
1164;SDS011;571;50.930;6.926;2023-04-01T23:47:54;11.70;;;9.67;;
1164;SDS011;571;50.930;6.926;2023-04-01T23:50:27;13.63;;;10.17;;
1164;SDS011;571;50.930;6.926;2023-04-01T23:52:58;12.13;;;10.87;;
1164;SDS011;571;50.930;6.926;2023-04-01T23:55:35;11.47;;;10.27;;
1164;SDS011;571;50.930;6.926;2023-04-01T23:58:27;11.37;;;10.27;;
